createdAt,value
2022-11-17T00:01:46.177Z,25.80
2022-11-17T00:04:16.651Z,25.90
2022-11-17T00:06:47.121Z,26.10
2022-11-17T00:09:19.325Z,26.20
2022-11-17T00:12:13.136Z,26.20
2022-11-17T00:14:44.565Z,26.30
2022-11-17T00:17:16.346Z,26.20
2022-11-17T00:20:06.386Z,26.30
2022-11-17T00:22:37.086Z,26.50
2022-11-17T00:25:07.792Z,26.50
2022-11-17T00:27:37.913Z,26.50
2022-11-17T00:30:09.548Z,26.70
2022-11-17T00:32:59.484Z,26.80
2022-11-17T00:35:29.928Z,26.80
2022-11-17T00:38:20.240Z,26.90
2022-11-17T00:40:50.403Z,26.90
2022-11-17T00:43:20.737Z,27.10
2022-11-17T00:45:51.212Z,27.20
2022-11-17T00:48:21.929Z,27.30
2022-11-17T00:50:52.713Z,27.30
2022-11-17T00:53:23.073Z,27.40
2022-11-17T00:55:53.885Z,27.40
2022-11-17T00:58:24.382Z,27.50
2022-11-17T01:00:54.896Z,27.60
2022-11-17T01:03:25.290Z,27.70
2022-11-17T01:05:55.834Z,27.60
2022-11-17T01:08:26.450Z,27.80
2022-11-17T01:10:57.437Z,28.10
2022-11-17T01:13:28.227Z,27.90
2022-11-17T01:16:03.123Z,27.90
2022-11-17T01:18:34.030Z,28.00
2022-11-17T01:21:20.813Z,28.10
2022-11-17T01:23:53.483Z,28.30
2022-11-17T01:26:27.377Z,28.40
2022-11-17T01:28:58.254Z,28.60
2022-11-17T01:31:31.203Z,28.40
2022-11-17T01:34:02.064Z,28.50
2022-11-17T01:36:54.621Z,28.70
2022-11-17T01:39:26.381Z,28.80
2022-11-17T01:41:57.831Z,28.90
2022-11-17T01:45:07.011Z,28.90
2022-11-17T01:47:58.834Z,29.00
2022-11-17T01:50:42.228Z,29.40
2022-11-17T01:53:19.339Z,29.40
2022-11-17T01:55:57.873Z,29.30
2022-11-17T01:58:34.481Z,29.20
2022-11-17T02:01:04.829Z,29.50
2022-11-17T02:03:38.410Z,29.50
2022-11-17T02:06:25.540Z,29.60
2022-11-17T02:08:56.962Z,29.50
2022-11-17T02:11:29.613Z,29.40
2022-11-17T02:14:00.475Z,29.70
2022-11-17T02:16:31.186Z,29.90
2022-11-17T02:19:02.028Z,30.00
2022-11-17T02:22:06.653Z,29.90
2022-11-17T02:25:10.315Z,30.00
2022-11-17T02:28:19.831Z,30.20
2022-11-17T02:31:00.946Z,30.40
2022-11-17T02:34:02.742Z,30.40
2022-11-17T02:36:45.899Z,30.60
2022-11-17T02:39:33.177Z,30.80
2022-11-17T02:43:02.299Z,30.80
2022-11-17T02:45:41.163Z,31.20
2022-11-17T02:48:18.092Z,31.00
2022-11-17T02:50:50.178Z,30.70
2022-11-17T02:53:21.703Z,31.00
2022-11-17T02:55:56.980Z,31.10
2022-11-17T02:58:27.760Z,31.30
2022-11-17T03:01:36.942Z,31.50
2022-11-17T03:04:46.191Z,31.50
2022-11-17T03:07:49.240Z,31.60
2022-11-17T03:10:42.476Z,31.90
2022-11-17T03:13:39.990Z,32.00
2022-11-17T03:16:49.241Z,32.20
2022-11-17T03:19:37.473Z,32.20
2022-11-17T03:22:26.691Z,32.40
2022-11-17T03:25:03.770Z,32.50
2022-11-17T03:27:46.556Z,32.50
2022-11-17T03:30:19.411Z,32.60
2022-11-17T03:32:53.910Z,32.70
2022-11-17T03:35:29.980Z,32.60
2022-11-17T03:38:07.306Z,32.60
2022-11-17T03:40:42.148Z,33.00
2022-11-17T03:43:15.409Z,32.50
2022-11-17T03:45:51.014Z,32.40
2022-11-17T03:48:45.034Z,32.50
2022-11-17T03:51:26.388Z,32.30
2022-11-17T03:53:57.548Z,32.50
2022-11-17T03:56:57.214Z,33.20
2022-11-17T03:59:35.839Z,33.50
2022-11-17T04:02:07.132Z,33.20
2022-11-17T04:04:57.176Z,33.20
2022-11-17T04:07:27.710Z,33.70
2022-11-17T04:09:58.311Z,33.80
2022-11-17T04:12:49.291Z,34.00
2022-11-17T04:15:39.760Z,33.90
2022-11-17T04:18:10.908Z,34.00
2022-11-17T04:20:41.697Z,34.20
2022-11-17T04:23:17.676Z,34.10
2022-11-17T04:26:10.842Z,34.20
2022-11-17T04:28:45.475Z,34.50
2022-11-17T04:31:25.006Z,34.10
2022-11-17T04:33:58.441Z,33.90
2022-11-17T04:36:33.053Z,34.00
2022-11-17T04:39:04.060Z,34.00
2022-11-17T04:41:56.869Z,34.60
2022-11-17T04:44:29.645Z,34.80
2022-11-17T04:47:03.575Z,34.40
2022-11-17T04:49:35.635Z,35.00
2022-11-17T04:52:06.413Z,34.20
2022-11-17T04:54:37.186Z,33.80
2022-11-17T04:57:08.156Z,34.00
2022-11-17T04:59:38.450Z,33.80
2022-11-17T05:02:08.610Z,34.00
2022-11-17T05:04:58.178Z,34.30
2022-11-17T05:07:29.677Z,34.30
2022-11-17T05:10:01.176Z,34.40
2022-11-17T05:12:51.633Z,34.80
2022-11-17T05:15:41.838Z,35.00
2022-11-17T05:18:12.269Z,34.90
2022-11-17T05:20:42.732Z,35.30
2022-11-17T05:23:32.954Z,35.40
2022-11-17T05:26:03.482Z,35.30
2022-11-17T05:28:33.850Z,35.60
2022-11-17T05:31:03.845Z,35.00
2022-11-17T05:33:37.780Z,35.10
2022-11-17T05:36:09.127Z,35.80
2022-11-17T05:38:39.303Z,36.00
2022-11-17T05:41:09.490Z,35.90
2022-11-17T05:43:39.571Z,35.70
2022-11-17T05:46:10.190Z,36.10
2022-11-17T05:48:41.643Z,35.50
2022-11-17T05:51:12.881Z,35.50
2022-11-17T05:53:43.295Z,35.40
2022-11-17T05:56:40.388Z,35.80
2022-11-17T05:59:28.019Z,35.00
2022-11-17T06:02:23.333Z,34.30
2022-11-17T06:04:54.107Z,35.30
2022-11-17T06:07:24.762Z,35.00
2022-11-17T06:09:56.463Z,35.70
2022-11-17T06:12:26.917Z,35.50
2022-11-17T06:14:57.090Z,35.50
2022-11-17T06:17:49.647Z,35.30
2022-11-17T06:20:24.606Z,34.90
2022-11-17T06:22:57.159Z,35.70
2022-11-17T06:25:27.719Z,35.90
2022-11-17T06:28:00.329Z,35.80
2022-11-17T06:30:31.444Z,35.80
2022-11-17T06:33:02.599Z,35.50
2022-11-17T06:35:35.254Z,35.40
2022-11-17T06:38:05.932Z,35.80
2022-11-17T06:40:35.992Z,36.30
2022-11-17T06:43:09.754Z,36.80
2022-11-17T06:45:42.329Z,36.90
2022-11-17T06:48:14.243Z,36.80
2022-11-17T06:50:44.969Z,36.60
2022-11-17T06:53:15.566Z,37.00
2022-11-17T06:56:08.663Z,37.10
2022-11-17T06:58:41.429Z,37.20
2022-11-17T07:01:14.981Z,37.00
2022-11-17T07:03:45.427Z,37.00
2022-11-17T07:06:17.770Z,36.40
2022-11-17T07:08:49.103Z,36.90
2022-11-17T07:11:19.862Z,37.10
2022-11-17T07:13:50.328Z,36.30
2022-11-17T07:16:24.268Z,36.00
2022-11-17T07:18:55.979Z,36.30
2022-11-17T07:21:26.496Z,36.90
2022-11-17T07:23:57.283Z,36.80
2022-11-17T07:26:27.639Z,37.20
2022-11-17T07:28:58.179Z,37.20
2022-11-17T07:31:28.469Z,37.00
2022-11-17T07:33:58.618Z,37.00
2022-11-17T07:36:28.812Z,37.10
2022-11-17T07:38:59.629Z,37.40
2022-11-17T07:41:30.492Z,37.50
2022-11-17T07:44:04.375Z,37.50
2022-11-17T07:46:34.925Z,37.30
2022-11-17T07:49:05.185Z,36.80
2022-11-17T07:51:35.333Z,36.40
2022-11-17T07:54:05.580Z,36.60
2022-11-17T07:56:36.952Z,36.50
2022-11-17T07:59:07.199Z,36.00
2022-11-17T08:01:37.680Z,35.70
2022-11-17T08:04:08.269Z,35.70
2022-11-17T08:06:39.044Z,35.60
2022-11-17T08:09:12.225Z,35.50
2022-11-17T08:11:42.381Z,35.60
2022-11-17T08:14:12.506Z,36.00
2022-11-17T08:16:42.773Z,36.30
2022-11-17T08:19:13.962Z,36.70
2022-11-17T08:21:44.155Z,36.30
2022-11-17T08:24:15.160Z,36.50
2022-11-17T08:26:45.676Z,36.80
2022-11-17T08:29:16.047Z,37.10
2022-11-17T08:31:47.865Z,37.00
2022-11-17T08:34:18.443Z,36.90
2022-11-17T08:36:48.709Z,36.80
2022-11-17T08:39:19.143Z,36.90
2022-11-17T08:41:49.488Z,36.50
2022-11-17T08:44:19.930Z,36.50
2022-11-17T08:46:50.647Z,36.50
2022-11-17T08:49:21.069Z,36.30
2022-11-17T08:51:51.901Z,36.20
2022-11-17T08:54:22.026Z,36.60
2022-11-17T08:56:52.645Z,36.30
2022-11-17T08:59:23.129Z,36.50
2022-11-17T09:01:53.820Z,36.50
2022-11-17T09:04:24.236Z,36.10
2022-11-17T09:06:54.430Z,36.10
2022-11-17T09:09:25.871Z,36.20
2022-11-17T09:11:56.335Z,36.40
2022-11-17T09:14:26.988Z,36.10
2022-11-17T09:16:57.222Z,35.90
2022-11-17T09:19:27.797Z,36.00
2022-11-17T09:21:57.991Z,36.00
2022-11-17T09:24:28.872Z,35.80
2022-11-17T09:26:59.377Z,35.80
2022-11-17T09:29:30.107Z,35.70
2022-11-17T09:32:00.894Z,35.30
2022-11-17T09:34:32.152Z,35.40
2022-11-17T09:37:02.284Z,35.80
2022-11-17T09:39:32.743Z,35.80
2022-11-17T09:42:05.147Z,35.90
2022-11-17T09:45:06.282Z,35.50
2022-11-17T09:47:50.477Z,35.60
2022-11-17T09:50:36.223Z,35.50
2022-11-17T09:53:28.901Z,35.60
2022-11-17T09:56:04.884Z,35.80
2022-11-17T09:59:00.552Z,35.70
2022-11-17T10:01:32.230Z,35.30
2022-11-17T10:04:03.127Z,34.90
2022-11-17T10:06:35.124Z,34.80
2022-11-17T10:09:32.107Z,34.80
2022-11-17T10:12:23.635Z,35.00
2022-11-17T10:14:56.197Z,35.00
2022-11-17T10:17:26.627Z,34.90
2022-11-17T10:19:57.139Z,35.00
2022-11-17T10:22:39.187Z,34.90
2022-11-17T10:25:42.551Z,34.90
2022-11-17T10:28:29.211Z,34.90
2022-11-17T10:31:20.349Z,34.60
2022-11-17T10:33:53.272Z,34.30
2022-11-17T10:36:35.155Z,34.10
2022-11-17T10:39:08.527Z,34.00
2022-11-17T10:41:44.673Z,33.80
2022-11-17T10:44:26.591Z,33.60
2022-11-17T10:47:02.629Z,33.60
2022-11-17T10:49:36.778Z,33.60
2022-11-17T10:52:23.187Z,33.60
2022-11-17T10:54:54.122Z,33.60
2022-11-17T10:57:28.059Z,33.60
2022-11-17T10:59:59.270Z,33.50
2022-11-17T11:02:39.253Z,33.50
2022-11-17T11:05:18.890Z,33.40
2022-11-17T11:07:49.876Z,33.20
2022-11-17T11:10:39.984Z,33.30
2022-11-17T11:13:34.932Z,33.20
2022-11-17T11:16:06.068Z,33.00
2022-11-17T11:18:36.806Z,32.80
2022-11-17T11:21:46.589Z,32.70
2022-11-17T11:24:35.759Z,32.70
2022-11-17T11:27:45.363Z,32.60
2022-11-17T11:30:19.194Z,32.40
2022-11-17T11:33:28.731Z,32.30
2022-11-17T11:36:26.444Z,32.20
2022-11-17T11:39:22.096Z,32.20
2022-11-17T11:42:31.362Z,32.10
2022-11-17T11:45:25.787Z,32.00
2022-11-17T11:48:33.159Z,31.90
2022-11-17T11:51:20.157Z,31.50
2022-11-17T11:54:02.720Z,31.30
2022-11-17T11:56:50.836Z,31.60
2022-11-17T12:00:03.718Z,31.80
2022-11-17T12:03:17.332Z,31.60
2022-11-17T12:06:40.597Z,31.20
2022-11-17T12:09:41.653Z,31.10
2022-11-17T12:12:21.263Z,30.80
2022-11-17T12:15:30.953Z,31.00
2022-11-17T12:18:22.002Z,31.10
2022-11-17T12:21:08.172Z,31.10
2022-11-17T12:24:03.863Z,31.30
2022-11-17T12:26:36.605Z,31.30
2022-11-17T12:29:30.250Z,31.40
2022-11-17T12:32:04.855Z,31.10
2022-11-17T12:34:38.775Z,31.00
2022-11-17T12:37:24.229Z,31.10
2022-11-17T12:40:30.764Z,30.50
2022-11-17T12:43:21.918Z,30.60
2022-11-17T12:46:29.963Z,30.60
2022-11-17T12:49:14.444Z,30.80
2022-11-17T12:51:59.421Z,30.60
2022-11-17T12:54:41.151Z,30.80
2022-11-17T12:57:24.575Z,30.80
2022-11-17T13:00:26.881Z,30.80
2022-11-17T13:03:18.207Z,30.80
2022-11-17T13:06:34.391Z,30.80
2022-11-17T13:09:07.842Z,30.50
2022-11-17T13:11:38.432Z,30.60
2022-11-17T13:14:19.106Z,30.50
2022-11-17T13:16:52.399Z,30.40
2022-11-17T13:19:43.636Z,30.40
2022-11-17T13:22:20.145Z,30.30
2022-11-17T13:24:52.603Z,30.40
2022-11-17T13:27:33.515Z,30.50
2022-11-17T13:30:25.266Z,30.60
2022-11-17T13:32:57.824Z,30.30
2022-11-17T13:35:36.768Z,29.90
2022-11-17T13:38:31.766Z,29.90
2022-11-17T13:41:05.402Z,30.00
2022-11-17T13:43:43.097Z,30.00
2022-11-17T13:46:13.731Z,30.10
2022-11-17T13:48:50.091Z,30.00
2022-11-17T13:51:43.724Z,30.00
2022-11-17T13:54:20.184Z,30.00
2022-11-17T13:56:56.952Z,29.60
2022-11-17T13:59:39.703Z,29.40
2022-11-17T14:02:31.297Z,29.40
2022-11-17T14:05:24.419Z,29.70
2022-11-17T14:07:56.370Z,29.90
2022-11-17T14:10:34.525Z,30.00
2022-11-17T14:13:25.422Z,30.00
2022-11-17T14:15:59.201Z,30.10
2022-11-17T14:18:32.841Z,30.10
2022-11-17T14:21:18.117Z,30.00
2022-11-17T14:23:48.393Z,30.10
2022-11-17T14:26:27.087Z,30.00
2022-11-17T14:29:03.512Z,29.90
2022-11-17T14:31:34.848Z,29.80
2022-11-17T14:34:05.707Z,29.90
2022-11-17T14:36:37.068Z,29.90
2022-11-17T14:39:17.903Z,29.60
2022-11-17T14:41:50.984Z,29.60
2022-11-17T14:44:23.373Z,29.50
2022-11-17T14:46:53.498Z,29.50
2022-11-17T14:49:23.884Z,29.40
2022-11-17T14:51:56.890Z,29.00
2022-11-17T14:54:27.672Z,28.90
2022-11-17T14:56:58.512Z,29.00
2022-11-17T14:59:29.252Z,28.90
2022-11-17T15:01:59.397Z,28.80
2022-11-17T15:04:49.435Z,29.00
2022-11-17T15:07:20.663Z,29.10
2022-11-17T15:09:51.146Z,29.20
2022-11-17T15:12:22.224Z,29.30
2022-11-17T15:14:52.968Z,29.40
2022-11-17T15:17:23.126Z,29.30
2022-11-17T15:19:53.346Z,29.40
2022-11-17T15:22:24.099Z,29.40
2022-11-17T15:24:54.610Z,29.30
2022-11-17T15:27:25.724Z,29.20
2022-11-17T15:29:56.640Z,29.30
2022-11-17T15:32:27.093Z,29.00
2022-11-17T15:34:57.515Z,28.60
2022-11-17T15:37:28.747Z,28.50
2022-11-17T15:39:59.287Z,28.50
2022-11-17T15:42:29.337Z,28.30
2022-11-17T15:44:59.944Z,28.30
2022-11-17T15:47:31.258Z,28.30
2022-11-17T15:50:02.118Z,28.30
2022-11-17T15:52:56.716Z,28.30
2022-11-17T15:55:23.326Z,28.40
2022-11-17T15:57:56.995Z,28.40
2022-11-17T16:00:27.964Z,28.50
2022-11-17T16:02:58.992Z,28.60
2022-11-17T16:05:29.458Z,28.70
2022-11-17T16:08:00.038Z,28.60
2022-11-17T16:10:30.619Z,28.60
2022-11-17T16:13:01.629Z,28.40
2022-11-17T16:15:32.224Z,28.30
2022-11-17T16:18:02.345Z,28.30
2022-11-17T16:20:32.828Z,28.60
2022-11-17T16:23:04.058Z,28.80
2022-11-17T16:25:34.497Z,28.80
2022-11-17T16:28:05.283Z,28.60
2022-11-17T16:30:37.309Z,28.60
2022-11-17T16:33:13.489Z,28.70
2022-11-17T16:35:44.240Z,28.70
2022-11-17T16:38:19.571Z,28.80
2022-11-17T16:40:50.407Z,28.80
2022-11-17T16:43:21.095Z,28.70
2022-11-17T16:45:51.966Z,28.50
2022-11-17T16:48:22.347Z,28.40
2022-11-17T16:50:52.736Z,28.40
2022-11-17T16:53:23.102Z,28.40
2022-11-17T16:55:53.984Z,28.50
2022-11-17T16:58:24.306Z,28.30
2022-11-17T17:00:55.085Z,27.80
2022-11-17T17:03:26.295Z,27.60
2022-11-17T17:05:56.702Z,27.40
2022-11-17T17:08:29.055Z,27.50
2022-11-17T17:11:04.906Z,27.50
2022-11-17T17:13:37.017Z,27.70
2022-11-17T17:16:09.437Z,27.80
2022-11-17T17:18:40.823Z,27.90
2022-11-17T17:21:20.731Z,27.90
2022-11-17T17:23:51.436Z,27.90
2022-11-17T17:26:23.848Z,27.80
2022-11-17T17:28:56.616Z,27.60
2022-11-17T17:31:30.912Z,27.50
2022-11-17T17:34:05.723Z,27.50
2022-11-17T17:36:38.081Z,27.70
2022-11-17T17:39:09.350Z,27.90
2022-11-17T17:41:45.253Z,27.80
2022-11-17T17:44:20.405Z,27.70
2022-11-17T17:46:51.324Z,27.80
2022-11-17T17:49:22.049Z,27.80
2022-11-17T17:51:52.645Z,27.80
2022-11-17T17:54:25.672Z,27.50
2022-11-17T17:56:58.671Z,27.40
2022-11-17T17:59:29.491Z,27.50
2022-11-17T18:02:00.327Z,27.30
2022-11-17T18:04:31.178Z,27.50
2022-11-17T18:07:03.132Z,27.30
2022-11-17T18:09:33.592Z,27.30
2022-11-17T18:12:04.467Z,27.20
2022-11-17T18:14:35.358Z,27.20
2022-11-17T18:17:05.857Z,27.20
2022-11-17T18:19:36.376Z,27.30
2022-11-17T18:22:06.442Z,27.30
2022-11-17T18:24:36.724Z,27.20
2022-11-17T18:27:07.123Z,27.20
2022-11-17T18:29:37.606Z,27.10
2022-11-17T18:32:08.410Z,27.10
2022-11-17T18:34:39.515Z,27.20
2022-11-17T18:37:10.638Z,27.30
2022-11-17T18:39:41.679Z,27.30
2022-11-17T18:42:12.121Z,27.30
2022-11-17T18:44:42.875Z,27.20
2022-11-17T18:47:13.145Z,27.00
2022-11-17T18:49:43.751Z,27.10
2022-11-17T18:52:15.000Z,27.20
2022-11-17T18:54:45.749Z,27.20
2022-11-17T18:57:16.255Z,27.10
2022-11-17T18:59:46.706Z,27.10
2022-11-17T19:02:17.420Z,27.20
2022-11-17T19:04:47.895Z,27.20
2022-11-17T19:07:18.518Z,27.20
2022-11-17T19:09:50.047Z,27.00
2022-11-17T19:12:20.607Z,26.80
2022-11-17T19:14:50.717Z,26.80
2022-11-17T19:17:21.319Z,26.90
2022-11-17T19:19:52.080Z,27.00
2022-11-17T19:22:22.514Z,26.90
2022-11-17T19:24:52.576Z,26.90
2022-11-17T19:27:23.062Z,26.90
2022-11-17T19:29:53.696Z,26.90
2022-11-17T19:32:24.237Z,26.90
2022-11-17T19:34:56.541Z,26.80
2022-11-17T19:37:32.279Z,26.90
2022-11-17T19:40:02.503Z,26.90
2022-11-17T19:42:33.217Z,26.90
2022-11-17T19:45:03.654Z,26.80
2022-11-17T19:47:34.679Z,26.50
2022-11-17T19:50:05.007Z,26.60
2022-11-17T19:52:35.065Z,26.60
2022-11-17T19:55:05.959Z,26.40
2022-11-17T19:57:36.474Z,26.60
2022-11-17T20:00:07.277Z,26.80
2022-11-17T20:02:42.055Z,26.70
2022-11-17T20:05:12.513Z,26.50
2022-11-17T20:07:42.992Z,26.30
2022-11-17T20:10:13.811Z,26.40
2022-11-17T20:12:44.974Z,26.50
2022-11-17T20:15:32.941Z,26.40
2022-11-17T20:18:03.934Z,26.30
2022-11-17T20:20:33.993Z,26.20
2022-11-17T20:23:04.419Z,26.30
2022-11-17T20:25:34.535Z,26.30
2022-11-17T20:28:04.609Z,26.60
2022-11-17T20:30:35.010Z,26.50
2022-11-17T20:33:05.088Z,26.60
2022-11-17T20:35:38.871Z,26.60
2022-11-17T20:38:13.067Z,26.50
2022-11-17T20:40:46.471Z,26.50
2022-11-17T20:43:17.508Z,26.40
2022-11-17T20:45:51.815Z,26.20
2022-11-17T20:48:22.786Z,26.30
2022-11-17T20:51:05.036Z,26.20
2022-11-17T20:53:36.158Z,26.10
2022-11-17T20:56:09.319Z,26.00
2022-11-17T20:58:40.217Z,26.20
2022-11-17T21:01:17.263Z,26.20
2022-11-17T21:03:48.292Z,26.20
2022-11-17T21:06:20.053Z,26.10
2022-11-17T21:08:50.863Z,26.20
2022-11-17T21:11:43.479Z,26.40
2022-11-17T21:14:15.718Z,26.30
2022-11-17T21:16:51.455Z,26.40
2022-11-17T21:19:22.208Z,26.40
2022-11-17T21:21:53.418Z,26.40
2022-11-17T21:24:24.743Z,26.40
2022-11-17T21:26:56.140Z,26.20
2022-11-17T21:29:26.840Z,26.20
2022-11-17T21:31:57.519Z,26.20
2022-11-17T21:34:28.336Z,26.10
2022-11-17T21:36:59.164Z,26.00
2022-11-17T21:39:29.662Z,26.00
2022-11-17T21:42:00.368Z,26.10
2022-11-17T21:44:30.863Z,26.20
2022-11-17T21:47:01.601Z,26.20
2022-11-17T21:49:32.672Z,26.10
2022-11-17T21:52:02.794Z,26.10
2022-11-17T21:54:33.261Z,26.10
2022-11-17T21:57:03.422Z,26.10
2022-11-17T21:59:34.010Z,26.00
2022-11-17T22:02:04.826Z,26.20
2022-11-17T22:04:35.583Z,26.20
2022-11-17T22:07:06.443Z,26.20
2022-11-17T22:09:38.370Z,26.20
2022-11-17T22:12:09.297Z,26.30
2022-11-17T22:14:39.821Z,26.20
2022-11-17T22:17:10.348Z,26.10
2022-11-17T22:19:41.892Z,26.10
2022-11-17T22:22:13.055Z,26.10
2022-11-17T22:24:48.421Z,26.20
2022-11-17T22:27:20.362Z,26.20
2022-11-17T22:29:51.128Z,26.00
2022-11-17T22:32:22.245Z,26.10
2022-11-17T22:34:53.002Z,26.00
2022-11-17T22:37:24.106Z,26.00
2022-11-17T22:39:54.975Z,25.90
2022-11-17T22:42:25.756Z,25.90
2022-11-17T22:44:56.476Z,25.90
2022-11-17T22:47:27.196Z,25.80
2022-11-17T22:49:57.662Z,25.70
2022-11-17T22:52:28.484Z,25.70
2022-11-17T22:54:59.911Z,25.80
2022-11-17T22:57:30.421Z,25.80
2022-11-17T23:00:00.919Z,25.70
2022-11-17T23:02:31.966Z,25.70
2022-11-17T23:05:02.968Z,25.70
2022-11-17T23:07:33.592Z,25.70
2022-11-17T23:10:05.699Z,25.80
2022-11-17T23:12:37.061Z,25.80
2022-11-17T23:15:09.256Z,25.90
2022-11-17T23:17:40.313Z,25.80
2022-11-17T23:20:12.192Z,25.70
2022-11-17T23:22:43.087Z,25.80
2022-11-17T23:25:14.253Z,25.80
2022-11-17T23:27:45.488Z,25.90
2022-11-17T23:30:16.599Z,26.00
2022-11-17T23:32:47.154Z,26.10
2022-11-17T23:35:17.974Z,26.10
2022-11-17T23:37:49.203Z,25.90
2022-11-17T23:40:20.062Z,25.90
2022-11-17T23:42:50.700Z,25.90
2022-11-17T23:45:21.319Z,26.10
2022-11-17T23:47:52.024Z,26.20
2022-11-17T23:50:22.780Z,26.20
2022-11-17T23:52:53.201Z,26.20
2022-11-17T23:55:23.886Z,26.20
2022-11-17T23:57:55.397Z,26.30
